sensor_id;sensor_type;location;lat;lon;timestamp;P1;durP1;ratioP1;P2;durP2;ratioP2
1885;SDS011;943;51.568;6.998;2023-01-28T00:02:14;9.20;;;6.83;;
1885;SDS011;943;51.568;6.998;2023-01-28T00:04:42;6.50;;;5.33;;
1885;SDS011;943;51.568;6.998;2023-01-28T00:07:10;9.53;;;6.13;;
1885;SDS011;943;51.568;6.998;2023-01-28T00:09:38;8.83;;;6.70;;
1885;SDS011;943;51.568;6.998;2023-01-28T00:12:06;7.03;;;5.70;;
1885;SDS011;943;51.568;6.998;2023-01-28T00:14:34;8.63;;;6.50;;
1885;SDS011;943;51.568;6.998;2023-01-28T00:17:05;8.50;;;5.93;;
1885;SDS011;943;51.568;6.998;2023-01-28T00:19:33;15.93;;;6.00;;
1885;SDS011;943;51.568;6.998;2023-01-28T00:22:01;11.00;;;6.17;;
1885;SDS011;943;51.568;6.998;2023-01-28T00:24:30;5.97;;;4.40;;
1885;SDS011;943;51.568;6.998;2023-01-28T00:26:58;10.00;;;5.60;;
1885;SDS011;943;51.568;6.998;2023-01-28T00:29:26;6.00;;;4.70;;
1885;SDS011;943;51.568;6.998;2023-01-28T00:31:54;6.90;;;5.60;;
1885;SDS011;943;51.568;6.998;2023-01-28T00:34:22;6.23;;;5.43;;
1885;SDS011;943;51.568;6.998;2023-01-28T00:36:50;7.40;;;5.47;;
1885;SDS011;943;51.568;6.998;2023-01-28T00:39:23;7.27;;;5.70;;
1885;SDS011;943;51.568;6.998;2023-01-28T00:41:53;6.13;;;5.10;;
1885;SDS011;943;51.568;6.998;2023-01-28T00:44:23;7.40;;;5.70;;
1885;SDS011;943;51.568;6.998;2023-01-28T00:46:51;9.80;;;5.10;;
1885;SDS011;943;51.568;6.998;2023-01-28T00:49:20;5.80;;;4.77;;
1885;SDS011;943;51.568;6.998;2023-01-28T00:51:48;8.33;;;6.50;;
1885;SDS011;943;51.568;6.998;2023-01-28T00:54:16;5.50;;;4.73;;
1885;SDS011;943;51.568;6.998;2023-01-28T00:56:44;8.17;;;5.17;;
1885;SDS011;943;51.568;6.998;2023-01-28T00:59:13;5.00;;;4.50;;
1885;SDS011;943;51.568;6.998;2023-01-28T01:01:40;6.10;;;4.93;;
1885;SDS011;943;51.568;6.998;2023-01-28T01:04:08;5.37;;;4.87;;
1885;SDS011;943;51.568;6.998;2023-01-28T01:06:37;4.90;;;3.90;;
1885;SDS011;943;51.568;6.998;2023-01-28T01:09:09;5.50;;;4.57;;
1885;SDS011;943;51.568;6.998;2023-01-28T01:11:39;5.80;;;4.93;;
1885;SDS011;943;51.568;6.998;2023-01-28T01:14:08;6.23;;;4.40;;
1885;SDS011;943;51.568;6.998;2023-01-28T01:16:39;6.77;;;4.60;;
1885;SDS011;943;51.568;6.998;2023-01-28T01:19:07;6.60;;;4.90;;
1885;SDS011;943;51.568;6.998;2023-01-28T01:21:34;5.83;;;4.57;;
1885;SDS011;943;51.568;6.998;2023-01-28T01:24:02;6.73;;;5.20;;
1885;SDS011;943;51.568;6.998;2023-01-28T01:26:31;5.80;;;4.67;;
1885;SDS011;943;51.568;6.998;2023-01-28T01:28:58;12.53;;;5.47;;
1885;SDS011;943;51.568;6.998;2023-01-28T01:31:26;6.50;;;5.20;;
1885;SDS011;943;51.568;6.998;2023-01-28T01:33:54;6.33;;;4.80;;
1885;SDS011;943;51.568;6.998;2023-01-28T01:36:22;6.20;;;5.30;;
1885;SDS011;943;51.568;6.998;2023-01-28T01:38:53;7.30;;;5.20;;
1885;SDS011;943;51.568;6.998;2023-01-28T01:41:26;6.33;;;5.10;;
1885;SDS011;943;51.568;6.998;2023-01-28T01:43:59;7.40;;;5.77;;
1885;SDS011;943;51.568;6.998;2023-01-28T01:46:40;7.87;;;6.00;;
1885;SDS011;943;51.568;6.998;2023-01-28T01:49:20;10.80;;;6.03;;
1885;SDS011;943;51.568;6.998;2023-01-28T01:52:06;8.53;;;5.43;;
1885;SDS011;943;51.568;6.998;2023-01-28T01:54:46;7.00;;;4.67;;
1885;SDS011;943;51.568;6.998;2023-01-28T01:57:28;6.90;;;5.30;;
1885;SDS011;943;51.568;6.998;2023-01-28T02:00:03;7.67;;;5.83;;
1885;SDS011;943;51.568;6.998;2023-01-28T02:02:41;7.20;;;5.43;;
1885;SDS011;943;51.568;6.998;2023-01-28T02:05:17;8.90;;;5.77;;
1885;SDS011;943;51.568;6.998;2023-01-28T02:07:49;8.60;;;6.07;;
1885;SDS011;943;51.568;6.998;2023-01-28T02:10:43;7.83;;;5.80;;
1885;SDS011;943;51.568;6.998;2023-01-28T02:13:27;9.83;;;6.30;;
1885;SDS011;943;51.568;6.998;2023-01-28T02:16:10;8.70;;;6.00;;
1885;SDS011;943;51.568;6.998;2023-01-28T02:18:40;8.10;;;6.43;;
1885;SDS011;943;51.568;6.998;2023-01-28T02:24:47;9.40;;;7.20;;
1885;SDS011;943;51.568;6.998;2023-01-28T02:32:08;17.77;;;13.87;;
1885;SDS011;943;51.568;6.998;2023-01-28T02:38:29;8.00;;;6.60;;
1885;SDS011;943;51.568;6.998;2023-01-28T02:41:12;11.07;;;6.27;;
1885;SDS011;943;51.568;6.998;2023-01-28T02:44:00;7.00;;;5.20;;
1885;SDS011;943;51.568;6.998;2023-01-28T02:49:20;8.63;;;6.37;;
1885;SDS011;943;51.568;6.998;2023-01-28T03:02:01;9.93;;;7.53;;
1885;SDS011;943;51.568;6.998;2023-01-28T03:05:27;11.57;;;7.53;;
1885;SDS011;943;51.568;6.998;2023-01-28T03:08:38;12.50;;;9.27;;
1885;SDS011;943;51.568;6.998;2023-01-28T03:14:53;13.70;;;9.70;;
1885;SDS011;943;51.568;6.998;2023-01-28T03:21:14;11.53;;;8.63;;
1885;SDS011;943;51.568;6.998;2023-01-28T03:24:19;15.10;;;10.80;;
1885;SDS011;943;51.568;6.998;2023-01-28T03:30:26;16.80;;;10.17;;
1885;SDS011;943;51.568;6.998;2023-01-28T03:33:43;16.60;;;10.33;;
1885;SDS011;943;51.568;6.998;2023-01-28T03:36:31;13.47;;;10.27;;
1885;SDS011;943;51.568;6.998;2023-01-28T03:39:48;17.30;;;7.53;;
1885;SDS011;943;51.568;6.998;2023-01-28T03:42:17;13.13;;;8.50;;
1885;SDS011;943;51.568;6.998;2023-01-28T03:45:01;13.77;;;10.37;;
1885;SDS011;943;51.568;6.998;2023-01-28T03:47:33;15.00;;;10.13;;
1885;SDS011;943;51.568;6.998;2023-01-28T03:50:03;14.27;;;9.63;;
1885;SDS011;943;51.568;6.998;2023-01-28T03:52:44;17.20;;;9.83;;
1885;SDS011;943;51.568;6.998;2023-01-28T03:55:28;13.97;;;10.13;;
1885;SDS011;943;51.568;6.998;2023-01-28T03:57:56;14.57;;;10.70;;
1885;SDS011;943;51.568;6.998;2023-01-28T04:00:24;12.97;;;9.27;;
1885;SDS011;943;51.568;6.998;2023-01-28T04:02:54;12.00;;;9.17;;
1885;SDS011;943;51.568;6.998;2023-01-28T04:05:22;16.27;;;9.97;;
1885;SDS011;943;51.568;6.998;2023-01-28T04:07:54;14.03;;;10.30;;
1885;SDS011;943;51.568;6.998;2023-01-28T04:10:43;15.50;;;10.60;;
1885;SDS011;943;51.568;6.998;2023-01-28T04:13:21;14.37;;;10.47;;
1885;SDS011;943;51.568;6.998;2023-01-28T04:15:50;13.50;;;9.17;;
1885;SDS011;943;51.568;6.998;2023-01-28T04:18:19;12.80;;;9.63;;
1885;SDS011;943;51.568;6.998;2023-01-28T04:21:12;14.00;;;10.20;;
1885;SDS011;943;51.568;6.998;2023-01-28T04:23:41;16.33;;;10.70;;
1885;SDS011;943;51.568;6.998;2023-01-28T04:26:12;17.73;;;13.60;;
1885;SDS011;943;51.568;6.998;2023-01-28T04:28:40;15.50;;;11.73;;
1885;SDS011;943;51.568;6.998;2023-01-28T04:31:07;16.70;;;13.20;;
1885;SDS011;943;51.568;6.998;2023-01-28T04:33:41;13.90;;;11.20;;
1885;SDS011;943;51.568;6.998;2023-01-28T04:36:18;15.00;;;10.87;;
1885;SDS011;943;51.568;6.998;2023-01-28T04:39:05;15.23;;;10.57;;
1885;SDS011;943;51.568;6.998;2023-01-28T04:41:35;16.80;;;12.00;;
1885;SDS011;943;51.568;6.998;2023-01-28T04:44:12;16.27;;;12.17;;
1885;SDS011;943;51.568;6.998;2023-01-28T04:46:53;15.97;;;11.63;;
1885;SDS011;943;51.568;6.998;2023-01-28T04:49:33;16.90;;;11.63;;
1885;SDS011;943;51.568;6.998;2023-01-28T04:52:12;15.20;;;10.93;;
1885;SDS011;943;51.568;6.998;2023-01-28T04:55:06;16.10;;;11.57;;
1885;SDS011;943;51.568;6.998;2023-01-28T04:57:36;13.80;;;10.17;;
1885;SDS011;943;51.568;6.998;2023-01-28T05:00:06;19.40;;;11.53;;
1885;SDS011;943;51.568;6.998;2023-01-28T05:02:35;14.93;;;10.83;;
1885;SDS011;943;51.568;6.998;2023-01-28T05:05:03;16.53;;;11.70;;
1885;SDS011;943;51.568;6.998;2023-01-28T05:07:51;17.57;;;11.90;;
1885;SDS011;943;51.568;6.998;2023-01-28T05:10:24;17.17;;;10.83;;
1885;SDS011;943;51.568;6.998;2023-01-28T05:12:54;14.97;;;10.33;;
1885;SDS011;943;51.568;6.998;2023-01-28T05:15:21;18.70;;;11.50;;
1885;SDS011;943;51.568;6.998;2023-01-28T05:17:53;15.90;;;10.57;;
1885;SDS011;943;51.568;6.998;2023-01-28T05:20:30;13.43;;;10.70;;
1885;SDS011;943;51.568;6.998;2023-01-28T05:22:59;16.80;;;10.70;;
1885;SDS011;943;51.568;6.998;2023-01-28T05:25:36;14.43;;;10.23;;
1885;SDS011;943;51.568;6.998;2023-01-28T05:28:04;13.03;;;10.67;;
1885;SDS011;943;51.568;6.998;2023-01-28T05:30:32;13.53;;;9.73;;
1885;SDS011;943;51.568;6.998;2023-01-28T05:33:00;14.00;;;10.93;;
1885;SDS011;943;51.568;6.998;2023-01-28T05:35:28;15.30;;;11.10;;
1885;SDS011;943;51.568;6.998;2023-01-28T05:37:57;14.67;;;11.30;;
1885;SDS011;943;51.568;6.998;2023-01-28T05:40:25;15.10;;;11.43;;
1885;SDS011;943;51.568;6.998;2023-01-28T05:42:53;14.90;;;11.77;;
1885;SDS011;943;51.568;6.998;2023-01-28T05:45:40;16.43;;;10.33;;
1885;SDS011;943;51.568;6.998;2023-01-28T05:48:15;16.57;;;10.87;;
1885;SDS011;943;51.568;6.998;2023-01-28T05:51:02;16.23;;;10.60;;
1885;SDS011;943;51.568;6.998;2023-01-28T05:53:36;16.30;;;12.33;;
1885;SDS011;943;51.568;6.998;2023-01-28T05:56:05;18.47;;;11.10;;
1885;SDS011;943;51.568;6.998;2023-01-28T05:58:36;16.70;;;11.47;;
1885;SDS011;943;51.568;6.998;2023-01-28T06:01:03;16.70;;;12.70;;
1885;SDS011;943;51.568;6.998;2023-01-28T06:03:39;17.90;;;12.20;;
1885;SDS011;943;51.568;6.998;2023-01-28T06:06:08;17.73;;;12.30;;
1885;SDS011;943;51.568;6.998;2023-01-28T06:08:36;18.90;;;12.17;;
1885;SDS011;943;51.568;6.998;2023-01-28T06:11:04;16.87;;;12.57;;
1885;SDS011;943;51.568;6.998;2023-01-28T06:13:33;18.50;;;12.63;;
1885;SDS011;943;51.568;6.998;2023-01-28T06:16:23;17.87;;;13.10;;
1885;SDS011;943;51.568;6.998;2023-01-28T06:19:23;15.87;;;11.17;;
1885;SDS011;943;51.568;6.998;2023-01-28T06:21:51;21.13;;;11.93;;
1885;SDS011;943;51.568;6.998;2023-01-28T06:24:19;17.00;;;12.83;;
1885;SDS011;943;51.568;6.998;2023-01-28T06:26:48;18.67;;;12.90;;
1885;SDS011;943;51.568;6.998;2023-01-28T06:29:16;15.63;;;12.47;;
1885;SDS011;943;51.568;6.998;2023-01-28T06:31:44;15.73;;;11.87;;
1885;SDS011;943;51.568;6.998;2023-01-28T06:34:12;20.63;;;12.37;;
1885;SDS011;943;51.568;6.998;2023-01-28T06:36:41;22.53;;;14.40;;
1885;SDS011;943;51.568;6.998;2023-01-28T06:39:09;23.17;;;12.70;;
1885;SDS011;943;51.568;6.998;2023-01-28T06:41:37;20.30;;;13.03;;
1885;SDS011;943;51.568;6.998;2023-01-28T06:44:05;17.90;;;12.73;;
1885;SDS011;943;51.568;6.998;2023-01-28T06:46:33;20.20;;;14.20;;
1885;SDS011;943;51.568;6.998;2023-01-28T06:49:01;17.40;;;12.57;;
1885;SDS011;943;51.568;6.998;2023-01-28T06:51:29;18.23;;;12.00;;
1885;SDS011;943;51.568;6.998;2023-01-28T06:53:58;22.20;;;14.90;;
1885;SDS011;943;51.568;6.998;2023-01-28T06:56:26;58.60;;;32.00;;
1885;SDS011;943;51.568;6.998;2023-01-28T06:58:54;30.37;;;19.10;;
1885;SDS011;943;51.568;6.998;2023-01-28T07:01:21;24.40;;;14.93;;
1885;SDS011;943;51.568;6.998;2023-01-28T07:03:49;19.07;;;14.33;;
1885;SDS011;943;51.568;6.998;2023-01-28T07:06:18;20.13;;;12.70;;
1885;SDS011;943;51.568;6.998;2023-01-28T07:08:46;16.63;;;11.30;;
1885;SDS011;943;51.568;6.998;2023-01-28T07:11:14;18.13;;;11.50;;
1885;SDS011;943;51.568;6.998;2023-01-28T07:13:43;16.70;;;13.20;;
1885;SDS011;943;51.568;6.998;2023-01-28T07:16:12;15.43;;;11.57;;
1885;SDS011;943;51.568;6.998;2023-01-28T07:18:40;18.27;;;12.43;;
1885;SDS011;943;51.568;6.998;2023-01-28T07:21:07;18.77;;;12.30;;
1885;SDS011;943;51.568;6.998;2023-01-28T07:23:35;18.80;;;12.63;;
1885;SDS011;943;51.568;6.998;2023-01-28T07:26:05;16.93;;;12.87;;
1885;SDS011;943;51.568;6.998;2023-01-28T07:28:33;19.17;;;13.07;;
1885;SDS011;943;51.568;6.998;2023-01-28T07:31:01;15.87;;;12.77;;
1885;SDS011;943;51.568;6.998;2023-01-28T07:33:29;16.00;;;12.40;;
1885;SDS011;943;51.568;6.998;2023-01-28T07:35:57;16.73;;;11.90;;
1885;SDS011;943;51.568;6.998;2023-01-28T07:38:25;19.33;;;12.33;;
1885;SDS011;943;51.568;6.998;2023-01-28T07:40:52;15.07;;;11.27;;
1885;SDS011;943;51.568;6.998;2023-01-28T07:43:20;16.70;;;11.57;;
1885;SDS011;943;51.568;6.998;2023-01-28T07:45:48;15.33;;;10.07;;
1885;SDS011;943;51.568;6.998;2023-01-28T07:48:16;13.60;;;11.20;;
1885;SDS011;943;51.568;6.998;2023-01-28T07:50:44;19.90;;;11.80;;
1885;SDS011;943;51.568;6.998;2023-01-28T07:53:15;15.70;;;12.30;;
1885;SDS011;943;51.568;6.998;2023-01-28T07:55:43;15.00;;;12.07;;
1885;SDS011;943;51.568;6.998;2023-01-28T07:58:11;15.17;;;12.27;;
1885;SDS011;943;51.568;6.998;2023-01-28T08:00:39;18.03;;;13.00;;
1885;SDS011;943;51.568;6.998;2023-01-28T08:03:13;17.50;;;11.80;;
1885;SDS011;943;51.568;6.998;2023-01-28T08:05:46;15.57;;;12.50;;
1885;SDS011;943;51.568;6.998;2023-01-28T08:08:18;14.80;;;10.77;;
1885;SDS011;943;51.568;6.998;2023-01-28T08:10:48;21.00;;;11.30;;
1885;SDS011;943;51.568;6.998;2023-01-28T08:13:17;16.07;;;11.10;;
1885;SDS011;943;51.568;6.998;2023-01-28T08:15:46;13.27;;;10.80;;
1885;SDS011;943;51.568;6.998;2023-01-28T08:18:14;13.57;;;10.60;;
1885;SDS011;943;51.568;6.998;2023-01-28T08:20:43;13.77;;;10.30;;
1885;SDS011;943;51.568;6.998;2023-01-28T08:23:19;15.23;;;11.90;;
1885;SDS011;943;51.568;6.998;2023-01-28T08:25:49;15.83;;;9.70;;
1885;SDS011;943;51.568;6.998;2023-01-28T08:28:17;14.90;;;10.50;;
1885;SDS011;943;51.568;6.998;2023-01-28T08:30:47;17.60;;;13.10;;
1885;SDS011;943;51.568;6.998;2023-01-28T08:33:16;21.57;;;15.30;;
1885;SDS011;943;51.568;6.998;2023-01-28T08:35:46;20.07;;;13.27;;
1885;SDS011;943;51.568;6.998;2023-01-28T08:38:14;18.07;;;13.20;;
1885;SDS011;943;51.568;6.998;2023-01-28T08:40:43;18.23;;;13.87;;
1885;SDS011;943;51.568;6.998;2023-01-28T08:43:10;18.43;;;13.33;;
1885;SDS011;943;51.568;6.998;2023-01-28T08:45:39;20.40;;;14.57;;
1885;SDS011;943;51.568;6.998;2023-01-28T08:48:09;19.17;;;13.90;;
1885;SDS011;943;51.568;6.998;2023-01-28T08:50:43;19.30;;;13.47;;
1885;SDS011;943;51.568;6.998;2023-01-28T08:53:16;21.00;;;13.17;;
1885;SDS011;943;51.568;6.998;2023-01-28T08:55:46;18.97;;;12.13;;
1885;SDS011;943;51.568;6.998;2023-01-28T08:58:16;22.90;;;15.27;;
1885;SDS011;943;51.568;6.998;2023-01-28T09:00:44;19.80;;;14.27;;
1885;SDS011;943;51.568;6.998;2023-01-28T09:03:16;17.77;;;12.50;;
1885;SDS011;943;51.568;6.998;2023-01-28T09:05:44;20.60;;;14.30;;
1885;SDS011;943;51.568;6.998;2023-01-28T09:08:15;22.67;;;15.03;;
1885;SDS011;943;51.568;6.998;2023-01-28T09:10:43;19.23;;;13.43;;
1885;SDS011;943;51.568;6.998;2023-01-28T09:13:14;20.57;;;14.03;;
1885;SDS011;943;51.568;6.998;2023-01-28T09:15:48;21.17;;;13.77;;
1885;SDS011;943;51.568;6.998;2023-01-28T09:18:17;21.60;;;13.63;;
1885;SDS011;943;51.568;6.998;2023-01-28T09:20:46;20.13;;;13.50;;
1885;SDS011;943;51.568;6.998;2023-01-28T09:23:14;20.17;;;13.30;;
1885;SDS011;943;51.568;6.998;2023-01-28T09:25:42;23.60;;;14.73;;
1885;SDS011;943;51.568;6.998;2023-01-28T09:28:10;22.17;;;14.63;;
1885;SDS011;943;51.568;6.998;2023-01-28T09:30:37;19.73;;;12.90;;
1885;SDS011;943;51.568;6.998;2023-01-28T09:33:06;19.50;;;13.20;;
1885;SDS011;943;51.568;6.998;2023-01-28T09:35:35;22.53;;;14.20;;
1885;SDS011;943;51.568;6.998;2023-01-28T09:38:09;25.10;;;14.40;;
1885;SDS011;943;51.568;6.998;2023-01-28T09:40:41;18.47;;;13.23;;
1885;SDS011;943;51.568;6.998;2023-01-28T09:46:17;17.20;;;13.10;;
1885;SDS011;943;51.568;6.998;2023-01-28T09:48:46;19.20;;;12.30;;
1885;SDS011;943;51.568;6.998;2023-01-28T09:57:44;17.80;;;13.07;;
1885;SDS011;943;51.568;6.998;2023-01-28T10:00:22;21.43;;;13.20;;
1885;SDS011;943;51.568;6.998;2023-01-28T10:06:49;16.30;;;12.30;;
1885;SDS011;943;51.568;6.998;2023-01-28T10:10:13;19.03;;;13.17;;
1885;SDS011;943;51.568;6.998;2023-01-28T10:13:18;18.17;;;12.20;;
1885;SDS011;943;51.568;6.998;2023-01-28T10:19:23;20.77;;;12.40;;
1885;SDS011;943;51.568;6.998;2023-01-28T10:22:09;19.50;;;11.93;;
1885;SDS011;943;51.568;6.998;2023-01-28T10:24:59;17.40;;;11.60;;
1885;SDS011;943;51.568;6.998;2023-01-28T10:27:47;16.70;;;11.70;;
1885;SDS011;943;51.568;6.998;2023-01-28T10:35:38;23.00;;;13.20;;
1885;SDS011;943;51.568;6.998;2023-01-28T10:38:12;18.20;;;12.03;;
1885;SDS011;943;51.568;6.998;2023-01-28T10:40:48;17.30;;;13.13;;
1885;SDS011;943;51.568;6.998;2023-01-28T10:43:23;21.23;;;11.70;;
1885;SDS011;943;51.568;6.998;2023-01-28T10:48:59;20.47;;;12.83;;
1885;SDS011;943;51.568;6.998;2023-01-28T10:51:56;20.20;;;12.70;;
1885;SDS011;943;51.568;6.998;2023-01-28T10:54:35;18.13;;;12.60;;
1885;SDS011;943;51.568;6.998;2023-01-28T10:57:04;18.50;;;13.13;;
1885;SDS011;943;51.568;6.998;2023-01-28T10:59:44;22.43;;;14.00;;
1885;SDS011;943;51.568;6.998;2023-01-28T11:02:28;19.10;;;12.83;;
1885;SDS011;943;51.568;6.998;2023-01-28T11:05:13;20.70;;;13.47;;
1885;SDS011;943;51.568;6.998;2023-01-28T11:08:05;18.40;;;12.33;;
1885;SDS011;943;51.568;6.998;2023-01-28T11:10:44;20.57;;;13.77;;
1885;SDS011;943;51.568;6.998;2023-01-28T11:13:16;19.93;;;13.37;;
1885;SDS011;943;51.568;6.998;2023-01-28T11:15:58;22.57;;;15.90;;
1885;SDS011;943;51.568;6.998;2023-01-28T11:18:47;22.57;;;13.27;;
1885;SDS011;943;51.568;6.998;2023-01-28T11:21:31;20.17;;;13.70;;
1885;SDS011;943;51.568;6.998;2023-01-28T11:24:06;23.97;;;14.70;;
1885;SDS011;943;51.568;6.998;2023-01-28T11:26:50;23.90;;;14.47;;
1885;SDS011;943;51.568;6.998;2023-01-28T11:29:29;23.03;;;12.13;;
1885;SDS011;943;51.568;6.998;2023-01-28T11:32:03;24.60;;;14.07;;
1885;SDS011;943;51.568;6.998;2023-01-28T11:34:47;22.10;;;13.60;;
1885;SDS011;943;51.568;6.998;2023-01-28T11:37:20;23.03;;;14.77;;
1885;SDS011;943;51.568;6.998;2023-01-28T11:40:02;22.67;;;14.83;;
1885;SDS011;943;51.568;6.998;2023-01-28T11:42:49;20.73;;;13.57;;
1885;SDS011;943;51.568;6.998;2023-01-28T11:45:26;23.53;;;15.43;;
1885;SDS011;943;51.568;6.998;2023-01-28T11:48:41;24.80;;;13.10;;
1885;SDS011;943;51.568;6.998;2023-01-28T11:52:05;15.80;;;11.10;;
1885;SDS011;943;51.568;6.998;2023-01-28T12:08:12;19.63;;;11.83;;
1885;SDS011;943;51.568;6.998;2023-01-28T12:15:07;21.37;;;13.53;;
1885;SDS011;943;51.568;6.998;2023-01-28T12:31:24;19.90;;;13.33;;
1885;SDS011;943;51.568;6.998;2023-01-28T12:43:44;24.37;;;15.87;;
1885;SDS011;943;51.568;6.998;2023-01-28T12:46:46;22.10;;;14.97;;
1885;SDS011;943;51.568;6.998;2023-01-28T12:52:29;23.10;;;14.60;;
1885;SDS011;943;51.568;6.998;2023-01-28T12:55:19;23.90;;;14.50;;
1885;SDS011;943;51.568;6.998;2023-01-28T12:58:18;23.33;;;16.20;;
1885;SDS011;943;51.568;6.998;2023-01-28T13:01:08;23.03;;;13.93;;
1885;SDS011;943;51.568;6.998;2023-01-28T13:07:06;21.23;;;13.20;;
1885;SDS011;943;51.568;6.998;2023-01-28T13:10:04;21.70;;;13.27;;
1885;SDS011;943;51.568;6.998;2023-01-28T13:13:12;20.20;;;14.40;;
1885;SDS011;943;51.568;6.998;2023-01-28T13:16:06;22.33;;;15.07;;
1885;SDS011;943;51.568;6.998;2023-01-28T13:21:13;19.23;;;12.70;;
1885;SDS011;943;51.568;6.998;2023-01-28T13:24:03;21.73;;;14.13;;
1885;SDS011;943;51.568;6.998;2023-01-28T13:26:51;20.87;;;14.03;;
1885;SDS011;943;51.568;6.998;2023-01-28T13:31:52;22.80;;;14.20;;
1885;SDS011;943;51.568;6.998;2023-01-28T13:34:58;19.57;;;12.90;;
1885;SDS011;943;51.568;6.998;2023-01-28T13:37:37;22.43;;;14.23;;
1885;SDS011;943;51.568;6.998;2023-01-28T13:42:40;21.67;;;12.33;;
1885;SDS011;943;51.568;6.998;2023-01-28T13:47:44;23.70;;;16.00;;
1885;SDS011;943;51.568;6.998;2023-01-28T13:50:41;22.43;;;14.60;;
1885;SDS011;943;51.568;6.998;2023-01-28T13:56:29;23.90;;;14.73;;
1885;SDS011;943;51.568;6.998;2023-01-28T14:19:18;25.47;;;16.03;;
1885;SDS011;943;51.568;6.998;2023-01-28T14:22:11;26.37;;;17.07;;
1885;SDS011;943;51.568;6.998;2023-01-28T14:24:46;28.13;;;16.47;;
1885;SDS011;943;51.568;6.998;2023-01-28T14:27:34;28.83;;;16.67;;
1885;SDS011;943;51.568;6.998;2023-01-28T14:33:44;28.13;;;16.73;;
1885;SDS011;943;51.568;6.998;2023-01-28T14:36:13;25.77;;;16.53;;
1885;SDS011;943;51.568;6.998;2023-01-28T14:38:42;26.73;;;17.33;;
1885;SDS011;943;51.568;6.998;2023-01-28T14:41:18;25.80;;;15.90;;
1885;SDS011;943;51.568;6.998;2023-01-28T14:43:53;29.53;;;18.33;;
1885;SDS011;943;51.568;6.998;2023-01-28T14:49:21;23.90;;;14.90;;
1885;SDS011;943;51.568;6.998;2023-01-28T14:58:36;26.30;;;17.60;;
1885;SDS011;943;51.568;6.998;2023-01-28T15:03:57;25.13;;;15.90;;
1885;SDS011;943;51.568;6.998;2023-01-28T15:06:29;28.17;;;17.97;;
1885;SDS011;943;51.568;6.998;2023-01-28T15:09:06;26.13;;;17.00;;
1885;SDS011;943;51.568;6.998;2023-01-28T15:11:39;26.13;;;17.23;;
1885;SDS011;943;51.568;6.998;2023-01-28T15:14:25;30.13;;;18.53;;
1885;SDS011;943;51.568;6.998;2023-01-28T15:16:58;29.43;;;18.60;;
1885;SDS011;943;51.568;6.998;2023-01-28T15:19:32;25.67;;;17.53;;
1885;SDS011;943;51.568;6.998;2023-01-28T15:22:04;26.00;;;18.33;;
1885;SDS011;943;51.568;6.998;2023-01-28T15:24:34;26.87;;;17.63;;
1885;SDS011;943;51.568;6.998;2023-01-28T15:27:17;26.43;;;16.83;;
1885;SDS011;943;51.568;6.998;2023-01-28T15:29:57;28.67;;;19.30;;
1885;SDS011;943;51.568;6.998;2023-01-28T15:32:29;33.00;;;19.13;;
1885;SDS011;943;51.568;6.998;2023-01-28T15:34:57;35.53;;;19.17;;
1885;SDS011;943;51.568;6.998;2023-01-28T15:37:26;35.37;;;20.37;;
1885;SDS011;943;51.568;6.998;2023-01-28T15:40:02;33.00;;;20.13;;
1885;SDS011;943;51.568;6.998;2023-01-28T15:42:45;30.87;;;20.10;;
1885;SDS011;943;51.568;6.998;2023-01-28T15:45:16;33.37;;;19.37;;
1885;SDS011;943;51.568;6.998;2023-01-28T15:47:52;33.83;;;20.47;;
1885;SDS011;943;51.568;6.998;2023-01-28T15:50:34;31.73;;;20.33;;
1885;SDS011;943;51.568;6.998;2023-01-28T15:53:06;32.43;;;19.90;;
1885;SDS011;943;51.568;6.998;2023-01-28T15:55:42;30.77;;;19.20;;
1885;SDS011;943;51.568;6.998;2023-01-28T15:58:20;35.13;;;21.40;;
1885;SDS011;943;51.568;6.998;2023-01-28T16:03:35;38.00;;;21.00;;
1885;SDS011;943;51.568;6.998;2023-01-28T16:11:27;36.20;;;21.23;;
1885;SDS011;943;51.568;6.998;2023-01-28T16:17:10;32.10;;;20.33;;
1885;SDS011;943;51.568;6.998;2023-01-28T16:19:58;33.73;;;21.30;;
1885;SDS011;943;51.568;6.998;2023-01-28T16:22:45;34.83;;;20.90;;
1885;SDS011;943;51.568;6.998;2023-01-28T16:25:27;33.33;;;21.33;;
1885;SDS011;943;51.568;6.998;2023-01-28T16:28:18;30.37;;;18.43;;
1885;SDS011;943;51.568;6.998;2023-01-28T16:30:46;35.83;;;20.50;;
1885;SDS011;943;51.568;6.998;2023-01-28T16:33:16;35.07;;;21.10;;
1885;SDS011;943;51.568;6.998;2023-01-28T16:35:48;32.70;;;19.77;;
1885;SDS011;943;51.568;6.998;2023-01-28T16:38:33;36.50;;;22.30;;
1885;SDS011;943;51.568;6.998;2023-01-28T16:41:00;35.73;;;21.10;;
1885;SDS011;943;51.568;6.998;2023-01-28T16:43:28;37.30;;;21.87;;
1885;SDS011;943;51.568;6.998;2023-01-28T16:45:57;36.83;;;22.13;;
1885;SDS011;943;51.568;6.998;2023-01-28T16:48:25;37.77;;;23.37;;
1885;SDS011;943;51.568;6.998;2023-01-28T16:50:55;36.60;;;22.30;;
1885;SDS011;943;51.568;6.998;2023-01-28T16:53:26;37.73;;;21.57;;
1885;SDS011;943;51.568;6.998;2023-01-28T16:55:59;39.13;;;22.80;;
1885;SDS011;943;51.568;6.998;2023-01-28T16:58:28;30.63;;;19.37;;
1885;SDS011;943;51.568;6.998;2023-01-28T17:00:56;39.10;;;21.83;;
1885;SDS011;943;51.568;6.998;2023-01-28T17:03:24;40.10;;;22.60;;
1885;SDS011;943;51.568;6.998;2023-01-28T17:05:52;41.60;;;23.73;;
1885;SDS011;943;51.568;6.998;2023-01-28T17:08:20;43.43;;;23.60;;
1885;SDS011;943;51.568;6.998;2023-01-28T17:10:52;37.30;;;21.07;;
1885;SDS011;943;51.568;6.998;2023-01-28T17:13:22;41.20;;;21.70;;
1885;SDS011;943;51.568;6.998;2023-01-28T17:15:52;39.63;;;21.43;;
1885;SDS011;943;51.568;6.998;2023-01-28T17:18:20;36.97;;;21.47;;
1885;SDS011;943;51.568;6.998;2023-01-28T17:20:48;34.83;;;21.83;;
1885;SDS011;943;51.568;6.998;2023-01-28T17:23:16;40.97;;;22.47;;
1885;SDS011;943;51.568;6.998;2023-01-28T17:25:48;36.80;;;21.60;;
1885;SDS011;943;51.568;6.998;2023-01-28T17:28:16;38.07;;;22.70;;
1885;SDS011;943;51.568;6.998;2023-01-28T17:30:45;39.33;;;21.47;;
1885;SDS011;943;51.568;6.998;2023-01-28T17:33:13;42.70;;;24.60;;
1885;SDS011;943;51.568;6.998;2023-01-28T17:35:44;43.17;;;25.17;;
1885;SDS011;943;51.568;6.998;2023-01-28T17:38:14;43.30;;;24.07;;
1885;SDS011;943;51.568;6.998;2023-01-28T17:40:42;41.90;;;23.80;;
1885;SDS011;943;51.568;6.998;2023-01-28T17:43:10;42.80;;;24.67;;
1885;SDS011;943;51.568;6.998;2023-01-28T17:45:38;42.43;;;24.37;;
1885;SDS011;943;51.568;6.998;2023-01-28T17:48:06;45.87;;;26.80;;
1885;SDS011;943;51.568;6.998;2023-01-28T17:50:37;42.67;;;25.50;;
1885;SDS011;943;51.568;6.998;2023-01-28T17:53:06;42.27;;;25.23;;
1885;SDS011;943;51.568;6.998;2023-01-28T17:55:36;41.30;;;26.43;;
1885;SDS011;943;51.568;6.998;2023-01-28T17:58:05;49.03;;;27.03;;
1885;SDS011;943;51.568;6.998;2023-01-28T18:00:33;51.47;;;27.40;;
1885;SDS011;943;51.568;6.998;2023-01-28T18:03:01;57.07;;;28.23;;
1885;SDS011;943;51.568;6.998;2023-01-28T18:05:29;44.50;;;27.17;;
1885;SDS011;943;51.568;6.998;2023-01-28T18:07:57;45.60;;;26.63;;
1885;SDS011;943;51.568;6.998;2023-01-28T18:10:25;49.87;;;27.47;;
1885;SDS011;943;51.568;6.998;2023-01-28T18:12:53;46.13;;;28.10;;
1885;SDS011;943;51.568;6.998;2023-01-28T18:15:23;47.37;;;26.63;;
1885;SDS011;943;51.568;6.998;2023-01-28T18:17:52;44.60;;;26.17;;
1885;SDS011;943;51.568;6.998;2023-01-28T18:20:20;51.93;;;29.13;;
1885;SDS011;943;51.568;6.998;2023-01-28T18:22:48;53.60;;;31.00;;
1885;SDS011;943;51.568;6.998;2023-01-28T18:25:16;65.03;;;36.43;;
1885;SDS011;943;51.568;6.998;2023-01-28T18:27:45;59.03;;;37.80;;
1885;SDS011;943;51.568;6.998;2023-01-28T18:30:13;54.27;;;32.60;;
1885;SDS011;943;51.568;6.998;2023-01-28T18:32:43;59.30;;;34.80;;
1885;SDS011;943;51.568;6.998;2023-01-28T18:35:11;51.63;;;30.77;;
1885;SDS011;943;51.568;6.998;2023-01-28T18:37:40;55.47;;;31.67;;
1885;SDS011;943;51.568;6.998;2023-01-28T18:40:08;59.20;;;34.10;;